Time;durP1;ratioP1;P1;durP2;ratioP2;P2;SDS_P1;SDS_P2;PMS_P1;PMS_P2;Temp;Humidity;BMP_temperature;BMP_pressure;BME280_temperature;BME280_humidity;BME280_pressure;Samples;Min_cycle;Max_cycle;Signal;HPM_P1;HPM_P2
2023/12/17 00:00:29;;;;;;;;;;;;;;;;;;5012946;28;19953;-47
2023/12/17 00:02:55;;;;;;;;;;;;;;;;;;5014275;28;19940;-46
2023/12/17 00:05:21;;;;;;;;;;;;;;;;;;5014499;28;20362;-47
2023/12/17 00:07:47;;;;;;;;;;;;;;;;;;5014540;28;19968;-46
2023/12/17 00:10:13;;;;;;;;;;;;;;;;;;5014437;28;19909;-46
2023/12/17 00:12:39;;;;;;;;;;;;;;;;;;5014063;28;19928;-46
2023/12/17 00:15:05;;;;;;;;;;;;;;;;;;5013737;28;19975;-47
2023/12/17 00:17:31;;;;;;;;;;;;;;;;;;5014296;28;19936;-49
2023/12/17 00:19:57;;;;;;;;;;;;;;;;;;5014278;28;19916;-47
2023/12/17 00:22:23;;;;;;;;;;;;;;;;;;5009005;28;20321;-47
2023/12/17 00:24:49;;;;;;;;;;;;;;;;;;4995837;28;19962;-47
2023/12/17 00:27:16;;;;;;;;;;;;;;;;;;5013726;28;20291;-47
2023/12/17 00:29:42;;;;;;;;;;;;;;;;;;5014278;28;20396;-47
2023/12/17 00:32:08;;;;;;;;;;;;;;;;;;5013903;28;19920;-46
2023/12/17 00:34:34;;;;;;;;;;;;;;;;;;5012663;28;19921;-46
2023/12/17 00:37:00;;;;;;;;;;;;;;;;;;5014018;28;19918;-47
2023/12/17 00:39:26;;;;;;;;;;;;;;;;;;5014054;28;20008;-46
2023/12/17 00:41:52;;;;;;;;;;;;;;;;;;5013708;28;19921;-47
2023/12/17 00:44:18;;;;;;;;;;;;;;;;;;5013742;28;19940;-47
2023/12/17 00:46:44;;;;;;;;;;;;;;;;;;5013471;28;20286;-47
2023/12/17 00:49:10;;;;;;;;;;;;;;;;;;5013808;28;19981;-47
2023/12/17 00:51:36;;;;;;;;;;;;;;;;;;5013746;28;19924;-47
2023/12/17 00:54:02;;;;;;;;;;;;;;;;;;5012160;28;19910;-46
2023/12/17 00:56:29;;;;;;;;;;;;;;;;;;5012907;28;19944;-47
2023/12/17 00:58:55;;;;;;;;;;;;;;;;;;5013737;28;19913;-46
2023/12/17 01:01:21;;;;;;;;;;;;;;;;;;5013315;28;20412;-47
2023/12/17 01:03:48;;;;;;;;;;;;;;;;;;5012971;28;20450;-47
2023/12/17 01:06:14;;;;;;;;;;;;;;;;;;5011704;28;20409;-47
2023/12/17 01:08:40;;;;;;;;;;;;;;;;;;5013529;28;20374;-47
2023/12/17 01:11:06;;;;;;;;;;;;;;;;;;5013023;28;19957;-47
2023/12/17 01:13:32;;;;;;;;;;;;;;;;;;5013078;28;19953;-50
2023/12/17 01:15:58;;;;;;;;;;;;;;;;;;5012921;28;20405;-46
2023/12/17 01:18:24;;;;;;;;;;;;;;;;;;5013056;28;19913;-48
2023/12/17 01:20:50;;;;;;;;;;;;;;;;;;5013463;28;19913;-48
2023/12/17 01:23:16;;;;;;;;;;;;;;;;;;5012907;28;19917;-47
2023/12/17 01:25:43;;;;;;;;;;;;;;;;;;5013025;28;19936;-47
2023/12/17 01:28:09;;;;;;;;;;;;;;;;;;5012767;28;19910;-47
2023/12/17 01:30:35;;;;;;;;;;;;;;;;;;5011557;28;19914;-47
2023/12/17 01:33:01;;;;;;;;;;;;;;;;;;5011246;28;19918;-47
2023/12/17 01:35:27;;;;;;;;;;;;;;;;;;5013071;28;20290;-46
2023/12/17 01:37:53;;;;;;;;;;;;;;;;;;5012622;28;19915;-46
2023/12/17 01:40:19;;;;;;;;;;;;;;;;;;5012846;28;19913;-47
2023/12/17 01:42:45;;;;;;;;;;;;;;;;;;5012409;28;19909;-47
2023/12/17 01:45:11;;;;;;;;;;;;;;;;;;5012363;28;19917;-49
2023/12/17 01:47:37;;;;;;;;;;;;;;;;;;5012992;28;20377;-46
2023/12/17 01:50:03;;;;;;;;;;;;;;;;;;5012526;28;19918;-46
2023/12/17 01:52:29;;;;;;;;;;;;;;;;;;5012777;28;19916;-47
2023/12/17 01:54:55;;;;;;;;;;;;;;;;;;5011366;28;20382;-48
2023/12/17 01:57:21;;;;;;;;;;;;;;;;;;5012323;28;19964;-46
2023/12/17 01:59:48;;;;;;;;;;;;;;;;;;5012147;28;19914;-47
2023/12/17 02:02:15;;;;;;;;;;;;;;;;;;5012005;28;20004;-47
2023/12/17 02:04:41;;;;;;;;;;;;;;;;;;5012185;28;19925;-46
2023/12/17 02:07:07;;;;;;;;;;;;;;;;;;5012603;28;19913;-50
2023/12/17 02:09:33;;;;;;;;;;;;;;;;;;5012625;28;19975;-46
2023/12/17 02:11:59;;;;;;;;;;;;;;;;;;4994487;28;20326;-47
2023/12/17 02:14:25;;;;;;;;;;;;;;;;;;5011408;28;19913;-46
2023/12/17 02:16:51;;;;;;;;;;;;;;;;;;5012269;28;19917;-48
2023/12/17 02:19:18;;;;;;;;;;;;;;;;;;5012476;28;20404;-47
2023/12/17 02:21:44;;;;;;;;;;;;;;;;;;5012348;28;19909;-47
2023/12/17 02:24:10;;;;;;;;;;;;;;;;;;5010983;28;20324;-47
2023/12/17 02:26:36;;;;;;;;;;;;;;;;;;5012117;28;19914;-47
2023/12/17 02:29:02;;;;;;;;;;;;;;;;;;5012205;28;19913;-47
2023/12/17 02:31:28;;;;;;;;;;;;;;;;;;5012186;28;19916;-48
2023/12/17 02:33:54;;;;;;;;;;;;;;;;;;5012174;28;19918;-46
2023/12/17 02:36:20;;;;;;;;;;;;;;;;;;5010951;28;19964;-47
2023/12/17 02:38:46;;;;;;;;;;;;;;;;;;5012275;28;19965;-47
2023/12/17 02:41:12;;;;;;;;;;;;;;;;;;5012224;28;19913;-47
2023/12/17 02:43:38;;;;;;;;;;;;;;;;;;5012073;28;19990;-49
2023/12/17 02:46:04;;;;;;;;;;;;;;;;;;5011926;28;19955;-46
2023/12/17 02:48:30;;;;;;;;;;;;;;;;;;5012221;28;19914;-47
2023/12/17 02:50:56;;;;;;;;;;;;;;;;;;5012047;28;19960;-46
2023/12/17 02:53:22;;;;;;;;;;;;;;;;;;5010844;28;19991;-47
2023/12/17 02:55:48;;;;;;;;;;;;;;;;;;5011787;28;19916;-46
2023/12/17 02:58:15;;;;;;;;;;;;;;;;;;5012008;28;19968;-47
2023/12/17 03:00:41;;;;;;;;;;;;;;;;;;5011680;28;20289;-47
2023/12/17 03:03:07;;;;;;;;;;;;;;;;;;5010703;28;19924;-47
2023/12/17 03:05:33;;;;;;;;;;;;;;;;;;5011317;28;19909;-47
2023/12/17 03:07:59;;;;;;;;;;;;;;;;;;5011966;28;19920;-47
2023/12/17 03:10:25;;;;;;;;;;;;;;;;;;5012310;28;19909;-46
2023/12/17 03:12:51;;;;;;;;;;;;;;;;;;5010489;28;19914;-47
2023/12/17 03:15:17;;;;;;;;;;;;;;;;;;5011433;28;19924;-47
2023/12/17 03:17:44;;;;;;;;;;;;;;;;;;5011831;28;19918;-46
2023/12/17 03:20:10;;;;;;;;;;;;;;;;;;5011913;28;20353;-46
2023/12/17 03:22:36;;;;;;;;;;;;;;;;;;5011506;28;20011;-47
2023/12/17 03:25:02;;;;;;;;;;;;;;;;;;5011669;28;19964;-50
2023/12/17 03:27:28;;;;;;;;;;;;;;;;;;5013795;28;19975;-48
2023/12/17 03:29:54;;;;;;;;;;;;;;;;;;5015190;28;19914;-46
2023/12/17 03:32:20;;;;;;;;;;;;;;;;;;5013348;28;19913;-48
2023/12/17 03:34:46;;;;;;;;;;;;;;;;;;5014940;28;19917;-46
2023/12/17 03:37:13;;;;;;;;;;;;;;;;;;5014954;28;20425;-46
2023/12/17 03:39:39;;;;;;;;;;;;;;;;;;5014439;28;19967;-46
2023/12/17 03:42:05;;;;;;;;;;;;;;;;;;5014861;28;20267;-47
2023/12/17 03:44:31;;;;;;;;;;;;;;;;;;5014728;28;20358;-46
2023/12/17 03:46:57;;;;;;;;;;;;;;;;;;5014669;28;19914;-46
2023/12/17 03:49:23;;;;;;;;;;;;;;;;;;5013594;28;19909;-46
2023/12/17 03:51:49;;;;;;;;;;;;;;;;;;5014669;28;19967;-46
2023/12/17 03:54:15;;;;;;;;;;;;;;;;;;5014536;28;19913;-50
2023/12/17 03:56:41;;;;;;;;;;;;;;;;;;5014418;28;19913;-48
2023/12/17 03:59:07;;;;;;;;;;;;;;;;;;5014594;28;19936;-48
2023/12/17 04:01:33;;;;;;;;;;;;;;;;;;5014237;28;19928;-48
2023/12/17 04:03:59;;;;;;;;;;;;;;;;;;5014114;28;20012;-50
2023/12/17 04:06:25;;;;;;;;;;;;;;;;;;5014489;28;19914;-46
2023/12/17 04:08:52;;;;;;;;;;;;;;;;;;4996949;28;19910;-48
2023/12/17 04:11:19;;;;;;;;;;;;;;;;;;5014312;28;19959;-49
2023/12/17 04:13:45;;;;;;;;;;;;;;;;;;5012903;28;19963;-47
2023/12/17 04:16:11;;;;;;;;;;;;;;;;;;5001073;28;19941;-46
2023/12/17 04:18:37;;;;;;;;;;;;;;;;;;5014076;28;19914;-50
2023/12/17 04:21:03;;;;;;;;;;;;;;;;;;5014640;28;19913;-50
2023/12/17 04:23:29;;;;;;;;;;;;;;;;;;5014143;28;19960;-47
2023/12/17 04:25:56;;;;;;;;;;;;;;;;;;5013889;28;19940;-47
2023/12/17 04:28:22;;;;;;;;;;;;;;;;;;5013912;28;19929;-49
2023/12/17 04:30:48;;;;;;;;;;;;;;;;;;5014010;28;19913;-47
2023/12/17 04:33:14;;;;;;;;;;;;;;;;;;5014415;28;19917;-47
2023/12/17 04:35:40;;;;;;;;;;;;;;;;;;5010728;28;19996;-47
2023/12/17 04:38:06;;;;;;;;;;;;;;;;;;5010971;28;19960;-47
2023/12/17 04:40:32;;;;;;;;;;;;;;;;;;5011934;28;20293;-47
2023/12/17 04:42:58;;;;;;;;;;;;;;;;;;5013478;28;19925;-48
2023/12/17 04:45:24;;;;;;;;;;;;;;;;;;5013229;28;20012;-47
2023/12/17 04:47:51;;;;;;;;;;;;;;;;;;5013472;28;19917;-47
2023/12/17 04:50:17;;;;;;;;;;;;;;;;;;5013708;28;19917;-46
2023/12/17 04:52:43;;;;;;;;;;;;;;;;;;5013669;28;20004;-48
2023/12/17 04:55:10;;;;;;;;;;;;;;;;;;5013546;28;20002;-46
2023/12/17 04:57:36;;;;;;;;;;;;;;;;;;5012580;28;20430;-46
2023/12/17 05:00:03;;;;;;;;;;;;;;;;;;5013701;28;19963;-46
2023/12/17 05:02:29;;;;;;;;;;;;;;;;;;5013563;28;20370;-46
2023/12/17 05:04:55;;;;;;;;;;;;;;;;;;5013444;28;19964;-46
2023/12/17 05:07:21;;;;;;;;;;;;;;;;;;5013471;28;19910;-47
2023/12/17 05:09:48;;;;;;;;;;;;;;;;;;5013313;28;19968;-46
2023/12/17 05:12:14;;;;;;;;;;;;;;;;;;5013376;28;19916;-46
2023/12/17 05:14:40;;;;;;;;;;;;;;;;;;5013186;28;19968;-46
2023/12/17 05:17:06;;;;;;;;;;;;;;;;;;5013486;28;20332;-46
2023/12/17 05:19:32;;;;;;;;;;;;;;;;;;5013261;28;19946;-46
2023/12/17 05:21:58;;;;;;;;;;;;;;;;;;5013224;28;19910;-46
2023/12/17 05:24:24;;;;;;;;;;;;;;;;;;5012885;28;20019;-47
2023/12/17 05:26:50;;;;;;;;;;;;;;;;;;5013365;28;19961;-46
2023/12/17 05:29:16;;;;;;;;;;;;;;;;;;5013154;28;19917;-47
2023/12/17 05:31:42;;;;;;;;;;;;;;;;;;5013136;28;20008;-47
2023/12/17 05:34:11;;;;;;;;;;;;;;;;;;5012885;28;19939;-46
2023/12/17 05:36:37;;;;;;;;;;;;;;;;;;5012754;28;19913;-46
2023/12/17 05:39:03;;;;;;;;;;;;;;;;;;5012944;28;19918;-47
2023/12/17 05:41:30;;;;;;;;;;;;;;;;;;5012941;28;19955;-46
2023/12/17 05:43:56;;;;;;;;;;;;;;;;;;5012868;28;19971;-46
2023/12/17 05:46:22;;;;;;;;;;;;;;;;;;5012999;28;19910;-46
2023/12/17 05:48:48;;;;;;;;;;;;;;;;;;5012113;28;19967;-46
2023/12/17 05:51:14;;;;;;;;;;;;;;;;;;5012830;28;20332;-46
2023/12/17 05:53:41;;;;;;;;;;;;;;;;;;5012558;28;19913;-46
2023/12/17 05:56:07;;;;;;;;;;;;;;;;;;5012628;28;19959;-46
2023/12/17 05:58:33;;;;;;;;;;;;;;;;;;5012739;28;19913;-46
2023/12/17 06:00:59;;;;;;;;;;;;;;;;;;5011474;28;20398;-46
2023/12/17 06:03:25;;;;;;;;;;;;;;;;;;5012433;28;19917;-46
2023/12/17 06:05:51;;;;;;;;;;;;;;;;;;5012358;28;20004;-46
2023/12/17 06:08:17;;;;;;;;;;;;;;;;;;5012656;28;20369;-46
2023/12/17 06:10:43;;;;;;;;;;;;;;;;;;5012579;28;20271;-46
2023/12/17 06:13:09;;;;;;;;;;;;;;;;;;5012399;28;19913;-46
2023/12/17 06:15:35;;;;;;;;;;;;;;;;;;5012215;28;19909;-46
2023/12/17 06:18:01;;;;;;;;;;;;;;;;;;5012448;28;19913;-46
2023/12/17 06:20:28;;;;;;;;;;;;;;;;;;5012195;28;20428;-46
2023/12/17 06:22:54;;;;;;;;;;;;;;;;;;4988592;28;20587;-46
2023/12/17 06:25:20;;;;;;;;;;;;;;;;;;4973242;28;19910;-46
2023/12/17 06:27:46;;;;;;;;;;;;;;;;;;4973360;28;19918;-46
2023/12/17 06:30:12;;;;;;;;;;;;;;;;;;4973314;28;19980;-46
2023/12/17 06:32:38;;;;;;;;;;;;;;;;;;4973044;28;20378;-46
2023/12/17 06:35:05;;;;;;;;;;;;;;;;;;4971892;28;19917;-46
2023/12/17 06:37:31;;;;;;;;;;;;;;;;;;4973304;28;19926;-46
2023/12/17 06:39:57;;;;;;;;;;;;;;;;;;4973389;28;19910;-47
2023/12/17 06:42:23;;;;;;;;;;;;;;;;;;4973191;28;20052;-49
2023/12/17 06:44:49;;;;;;;;;;;;;;;;;;4972949;28;19914;-46
2023/12/17 06:47:17;;;;;;;;;;;;;;;;;;4973094;28;19914;-46
2023/12/17 06:49:43;;;;;;;;;;;;;;;;;;4972979;28;20394;-47
2023/12/17 06:52:09;;;;;;;;;;;;;;;;;;4973308;28;19914;-46
2023/12/17 06:54:35;;;;;;;;;;;;;;;;;;4972874;28;19910;-46
2023/12/17 06:57:01;;;;;;;;;;;;;;;;;;4973044;28;20016;-46
2023/12/17 06:59:27;;;;;;;;;;;;;;;;;;4972931;28;19910;-50
2023/12/17 07:01:54;;;;;;;;;;;;;;;;;;4976381;28;19953;-46
2023/12/17 07:04:20;;;;;;;;;;;;;;;;;;4976444;28;19930;-46
2023/12/17 07:06:46;;;;;;;;;;;;;;;;;;4976641;28;20372;-46
2023/12/17 07:09:13;;;;;;;;;;;;;;;;;;4959502;28;20105;-46
2023/12/17 07:11:39;;;;;;;;;;;;;;;;;;4976839;28;20326;-46
2023/12/17 07:14:05;;;;;;;;;;;;;;;;;;4976502;28;20374;-46
2023/12/17 07:16:31;;;;;;;;;;;;;;;;;;4975052;28;19960;-46
2023/12/17 07:18:57;;;;;;;;;;;;;;;;;;4976458;28;19921;-46
2023/12/17 07:21:23;;;;;;;;;;;;;;;;;;4976376;28;20009;-47
2023/12/17 07:23:49;;;;;;;;;;;;;;;;;;4976346;28;20391;-49
2023/12/17 07:26:15;;;;;;;;;;;;;;;;;;4976223;28;19940;-48
2023/12/17 07:28:41;;;;;;;;;;;;;;;;;;4975112;28;19910;-47
2023/12/17 07:31:07;;;;;;;;;;;;;;;;;;4974941;28;20005;-47
2023/12/17 07:33:33;;;;;;;;;;;;;;;;;;4975964;28;20299;-47
2023/12/17 07:35:59;;;;;;;;;;;;;;;;;;4994283;28;19922;-48
2023/12/17 07:38:25;;;;;;;;;;;;;;;;;;4995767;28;19910;-49
2023/12/17 07:40:51;;;;;;;;;;;;;;;;;;4995421;28;19984;-47
2023/12/17 07:43:17;;;;;;;;;;;;;;;;;;4995373;28;19917;-48
2023/12/17 07:45:44;;;;;;;;;;;;;;;;;;4993974;28;20501;-48
2023/12/17 07:48:10;;;;;;;;;;;;;;;;;;4995220;28;20322;-46
2023/12/17 07:50:36;;;;;;;;;;;;;;;;;;4995287;28;19968;-47
2023/12/17 07:53:03;;;;;;;;;;;;;;;;;;4995229;28;19910;-47
2023/12/17 07:55:29;;;;;;;;;;;;;;;;;;4995175;28;19921;-46
2023/12/17 07:57:55;;;;;;;;;;;;;;;;;;4995325;28;19910;-46
2023/12/17 08:00:21;;;;;;;;;;;;;;;;;;4995137;28;19969;-48
2023/12/17 08:02:47;;;;;;;;;;;;;;;;;;4994832;28;19957;-48
2023/12/17 08:05:13;;;;;;;;;;;;;;;;;;4995022;28;19914;-46
2023/12/17 08:07:39;;;;;;;;;;;;;;;;;;4995174;28;19949;-48
2023/12/17 08:10:06;;;;;;;;;;;;;;;;;;4995087;28;19914;-46
2023/12/17 08:12:32;;;;;;;;;;;;;;;;;;4993831;28;19909;-48
2023/12/17 08:14:58;;;;;;;;;;;;;;;;;;4994639;28;20333;-48
2023/12/17 08:17:24;;;;;;;;;;;;;;;;;;4994833;28;19953;-46
2023/12/17 08:19:50;;;;;;;;;;;;;;;;;;4994891;28;20000;-47
2023/12/17 08:22:16;;;;;;;;;;;;;;;;;;4994750;28;19914;-48
2023/12/17 08:24:43;;;;;;;;;;;;;;;;;;4994578;28;20017;-49
2023/12/17 08:27:09;;;;;;;;;;;;;;;;;;4994812;28;20279;-50
2023/12/17 08:29:35;;;;;;;;;;;;;;;;;;4993575;28;19913;-49
2023/12/17 08:32:01;;;;;;;;;;;;;;;;;;4994584;28;19968;-46
2023/12/17 08:34:29;;;;;;;;;;;;;;;;;;4994281;28;19917;-47
2023/12/17 08:36:55;;;;;;;;;;;;;;;;;;4994680;28;19909;-46
2023/12/17 08:39:23;;;;;;;;;;;;;;;;;;4994432;28;19918;-46
2023/12/17 08:41:49;;;;;;;;;;;;;;;;;;4994363;28;19909;-47
2023/12/17 08:44:19;;;;;;;;;;;;;;;;;;4992953;28;19933;-46
2023/12/17 08:46:46;;;;;;;;;;;;;;;;;;4994370;28;19913;-46
2023/12/17 08:49:12;;;;;;;;;;;;;;;;;;4993068;28;19964;-47
2023/12/17 08:51:38;;;;;;;;;;;;;;;;;;4993176;28;19952;-46
2023/12/17 08:54:04;;;;;;;;;;;;;;;;;;4992894;28;20004;-47
2023/12/17 08:56:30;;;;;;;;;;;;;;;;;;4993933;28;19914;-46
2023/12/17 08:58:56;;;;;;;;;;;;;;;;;;4994061;28;19956;-47
2023/12/17 09:01:22;;;;;;;;;;;;;;;;;;4994270;28;19913;-49
2023/12/17 09:03:48;;;;;;;;;;;;;;;;;;4993843;28;19956;-47
2023/12/17 09:06:14;;;;;;;;;;;;;;;;;;4993819;28;19920;-50
2023/12/17 09:08:40;;;;;;;;;;;;;;;;;;4993972;28;20417;-48
2023/12/17 09:11:07;;;;;;;;;;;;;;;;;;4993732;28;20217;-49
2023/12/17 09:13:33;;;;;;;;;;;;;;;;;;4993447;28;19917;-46
2023/12/17 09:15:59;;;;;;;;;;;;;;;;;;4993830;28;20445;-46
2023/12/17 09:18:25;;;;;;;;;;;;;;;;;;4994077;28;19933;-47
2023/12/17 09:20:51;;;;;;;;;;;;;;;;;;4976287;28;19940;-46
2023/12/17 09:23:17;;;;;;;;;;;;;;;;;;4993361;28;19917;-46
2023/12/17 09:25:43;;;;;;;;;;;;;;;;;;4992192;28;19920;-48
2023/12/17 09:28:09;;;;;;;;;;;;;;;;;;4993527;28;19953;-48
2023/12/17 09:30:35;;;;;;;;;;;;;;;;;;4993657;28;20286;-46
2023/12/17 09:33:01;;;;;;;;;;;;;;;;;;4993387;28;20359;-46
2023/12/17 09:35:27;;;;;;;;;;;;;;;;;;4993330;28;19924;-46
2023/12/17 09:37:53;;;;;;;;;;;;;;;;;;4992157;28;19909;-46
2023/12/17 09:40:19;;;;;;;;;;;;;;;;;;4993245;28;19961;-47
2023/12/17 09:42:45;;;;;;;;;;;;;;;;;;4991840;28;20000;-46
2023/12/17 09:45:14;;;;;;;;;;;;;;;;;;4993119;28;19917;-47
2023/12/17 09:47:40;;;;;;;;;;;;;;;;;;4993255;28;20004;-46
2023/12/17 09:50:08;;;;;;;;;;;;;;;;;;4991852;28;20000;-47
2023/12/17 09:52:34;;;;;;;;;;;;;;;;;;4993114;28;19922;-45
2023/12/17 09:55:03;;;;;;;;;;;;;;;;;;4975523;28;20389;-46
2023/12/17 09:57:30;;;;;;;;;;;;;;;;;;4992067;28;19917;-41
2023/12/17 09:59:56;;;;;;;;;;;;;;;;;;4991493;28;20361;-46
2023/12/17 10:02:22;;;;;;;;;;;;;;;;;;4992892;28;20423;-46
2023/12/17 10:04:48;;;;;;;;;;;;;;;;;;4992664;28;20291;-46
2023/12/17 10:07:14;;;;;;;;;;;;;;;;;;4991668;28;20252;-46
2023/12/17 10:09:40;;;;;;;;;;;;;;;;;;4991706;28;19921;-47
2023/12/17 10:12:06;;;;;;;;;;;;;;;;;;4992941;28;19909;-47
2023/12/17 10:14:32;;;;;;;;;;;;;;;;;;4992698;28;19914;-48
2023/12/17 10:16:58;;;;;;;;;;;;;;;;;;4992602;28;19917;-46
2023/12/17 10:19:24;;;;;;;;;;;;;;;;;;4991581;28;19920;-45
2023/12/17 10:21:50;;;;;;;;;;;;;;;;;;4992759;28;20279;-47
2023/12/17 10:24:18;;;;;;;;;;;;;;;;;;4992556;28;19953;-47
2023/12/17 10:26:44;;;;;;;;;;;;;;;;;;4992310;28;19910;-46
2023/12/17 10:29:10;;;;;;;;;;;;;;;;;;4992906;28;20367;-47
2023/12/17 10:31:36;;;;;;;;;;;;;;;;;;4992681;28;19910;-45
2023/12/17 10:34:02;;;;;;;;;;;;;;;;;;4993143;28;19972;-46
2023/12/17 10:36:28;;;;;;;;;;;;;;;;;;4995082;28;20165;-46
2023/12/17 10:38:54;;;;;;;;;;;;;;;;;;4996698;28;20326;-47
2023/12/17 10:41:20;;;;;;;;;;;;;;;;;;4979303;28;19972;-48
2023/12/17 10:43:46;;;;;;;;;;;;;;;;;;4996514;28;20398;-46
2023/12/17 10:46:13;;;;;;;;;;;;;;;;;;4996540;28;20437;-45
2023/12/17 10:48:39;;;;;;;;;;;;;;;;;;4996528;28;19914;-46
2023/12/17 10:51:05;;;;;;;;;;;;;;;;;;4996413;28;19909;-47
2023/12/17 10:53:31;;;;;;;;;;;;;;;;;;4978730;28;19921;-45
2023/12/17 10:55:57;;;;;;;;;;;;;;;;;;4992603;28;20370;-46
2023/12/17 10:58:24;;;;;;;;;;;;;;;;;;4994700;28;19913;-46
2023/12/17 11:00:50;;;;;;;;;;;;;;;;;;4992773;28;19988;-49
2023/12/17 11:03:16;;;;;;;;;;;;;;;;;;4994486;28;20389;-46
2023/12/17 11:05:42;;;;;;;;;;;;;;;;;;4993256;28;19910;-47
2023/12/17 11:08:08;;;;;;;;;;;;;;;;;;4994409;28;20016;-46
2023/12/17 11:10:34;;;;;;;;;;;;;;;;;;4994524;28;19910;-46
2023/12/17 11:13:00;;;;;;;;;;;;;;;;;;4994517;28;19921;-47
2023/12/17 11:15:27;;;;;;;;;;;;;;;;;;4994119;28;19914;-48
2023/12/17 11:17:53;;;;;;;;;;;;;;;;;;4994576;28;19952;-45
2023/12/17 11:20:19;;;;;;;;;;;;;;;;;;4993153;28;19914;-46
2023/12/17 11:22:45;;;;;;;;;;;;;;;;;;4993064;28;19914;-46
2023/12/17 11:25:11;;;;;;;;;;;;;;;;;;4993945;28;20381;-45
2023/12/17 11:27:37;;;;;;;;;;;;;;;;;;4994229;28;20012;-45
2023/12/17 11:30:03;;;;;;;;;;;;;;;;;;4994203;28;19942;-45
2023/12/17 11:32:29;;;;;;;;;;;;;;;;;;4993951;28;19983;-47
2023/12/17 11:34:55;;;;;;;;;;;;;;;;;;4993986;28;20232;-45
2023/12/17 11:37:22;;;;;;;;;;;;;;;;;;4993959;28;20356;-45
2023/12/17 11:39:48;;;;;;;;;;;;;;;;;;4994161;28;19917;-45
2023/12/17 11:42:14;;;;;;;;;;;;;;;;;;4993894;28;19913;-47
2023/12/17 11:44:40;;;;;;;;;;;;;;;;;;4993767;28;20404;-45
2023/12/17 11:47:06;;;;;;;;;;;;;;;;;;5000507;28;20366;-47
2023/12/17 11:49:32;;;;;;;;;;;;;;;;;;5012660;28;19913;-44
2023/12/17 11:51:59;;;;;;;;;;;;;;;;;;5001542;28;20365;-45
2023/12/17 11:54:25;;;;;;;;;;;;;;;;;;5012443;28;19916;-48
2023/12/17 11:56:51;;;;;;;;;;;;;;;;;;5012976;28;19921;-46
2023/12/17 11:59:17;;;;;;;;;;;;;;;;;;5012708;28;19955;-46
2023/12/17 12:01:43;;;;;;;;;;;;;;;;;;5011134;28;20285;-45
2023/12/17 12:04:09;;;;;;;;;;;;;;;;;;5012312;28;19924;-46
2023/12/17 12:06:35;;;;;;;;;;;;;;;;;;5012074;28;19921;-46
2023/12/17 12:09:02;;;;;;;;;;;;;;;;;;5012782;28;19921;-44
2023/12/17 12:11:29;;;;;;;;;;;;;;;;;;5013097;28;19922;-49
2023/12/17 12:13:56;;;;;;;;;;;;;;;;;;5011431;28;19924;-46
2023/12/17 12:16:24;;;;;;;;;;;;;;;;;;5006354;28;20287;-47
2023/12/17 12:18:50;;;;;;;;;;;;;;;;;;5012572;28;19971;-49
2023/12/17 12:21:16;;;;;;;;;;;;;;;;;;5012597;28;20462;-46
2023/12/17 12:23:44;;;;;;;;;;;;;;;;;;5012379;28;19917;-49
2023/12/17 12:26:10;;;;;;;;;;;;;;;;;;5010787;28;19913;-46
2023/12/17 12:28:36;;;;;;;;;;;;;;;;;;5012691;28;19917;-46
2023/12/17 12:31:02;;;;;;;;;;;;;;;;;;5010381;28;19917;-48
2023/12/17 12:33:28;;;;;;;;;;;;;;;;;;5010434;28;20428;-47
2023/12/17 12:35:54;;;;;;;;;;;;;;;;;;5010907;28;19917;-45
2023/12/17 12:38:20;;;;;;;;;;;;;;;;;;5010939;28;19918;-46
2023/12/17 12:40:47;;;;;;;;;;;;;;;;;;5007352;28;19925;-45
2023/12/17 12:43:16;;;;;;;;;;;;;;;;;;4999256;28;20395;-46
2023/12/17 12:45:42;;;;;;;;;;;;;;;;;;5012346;28;19921;-46
2023/12/17 12:48:09;;;;;;;;;;;;;;;;;;5010640;28;19960;-47
2023/12/17 12:50:35;;;;;;;;;;;;;;;;;;5012361;28;19917;-46
2023/12/17 12:53:01;;;;;;;;;;;;;;;;;;5012904;28;19909;-46
2023/12/17 12:55:27;;;;;;;;;;;;;;;;;;5012750;28;20016;-45
2023/12/17 12:57:53;;;;;;;;;;;;;;;;;;5012816;28;19913;-46
2023/12/17 13:00:20;;;;;;;;;;;;;;;;;;5011888;28;19913;-46
2023/12/17 13:02:46;;;;;;;;;;;;;;;;;;5013491;28;20083;-47
2023/12/17 13:05:12;;;;;;;;;;;;;;;;;;5011804;28;20445;-46
2023/12/17 13:07:38;;;;;;;;;;;;;;;;;;5013672;28;19935;-47
2023/12/17 13:10:04;;;;;;;;;;;;;;;;;;5013536;28;20377;-46
2023/12/17 13:12:30;;;;;;;;;;;;;;;;;;5013867;28;19917;-46
2023/12/17 13:14:57;;;;;;;;;;;;;;;;;;5012501;28;20012;-46
2023/12/17 13:17:23;;;;;;;;;;;;;;;;;;5012041;28;19961;-46
2023/12/17 13:19:49;;;;;;;;;;;;;;;;;;5013496;28;19960;-46
2023/12/17 13:22:15;;;;;;;;;;;;;;;;;;5013259;28;20004;-46
2023/12/17 13:24:41;;;;;;;;;;;;;;;;;;5011906;28;20275;-46
2023/12/17 13:27:07;;;;;;;;;;;;;;;;;;5012134;28;19920;-48
2023/12/17 13:29:33;;;;;;;;;;;;;;;;;;5011970;28;19963;-46
2023/12/17 13:31:59;;;;;;;;;;;;;;;;;;5013205;28;19964;-46
2023/12/17 13:34:25;;;;;;;;;;;;;;;;;;5012915;28;19980;-46
2023/12/17 13:36:51;;;;;;;;;;;;;;;;;;5013027;28;20341;-46
2023/12/17 13:39:17;;;;;;;;;;;;;;;;;;5012722;28;19923;-50
2023/12/17 13:41:44;;;;;;;;;;;;;;;;;;5012982;28;20196;-46
2023/12/17 13:44:10;;;;;;;;;;;;;;;;;;5012754;28;19980;-46
2023/12/17 13:46:36;;;;;;;;;;;;;;;;;;5012816;28;19909;-47
2023/12/17 13:49:03;;;;;;;;;;;;;;;;;;5013073;28;20012;-46
2023/12/17 13:51:29;;;;;;;;;;;;;;;;;;4995243;28;19909;-47
2023/12/17 13:53:55;;;;;;;;;;;;;;;;;;5012613;28;19920;-47
2023/12/17 13:56:21;;;;;;;;;;;;;;;;;;5012611;28;19909;-47
2023/12/17 13:58:47;;;;;;;;;;;;;;;;;;5012683;28;19964;-46
2023/12/17 14:01:13;;;;;;;;;;;;;;;;;;5012686;28;19916;-46
2023/12/17 14:03:40;;;;;;;;;;;;;;;;;;5011514;28;20298;-49
2023/12/17 14:06:08;;;;;;;;;;;;;;;;;;5012329;28;20394;-47
2023/12/17 14:08:34;;;;;;;;;;;;;;;;;;5011422;28;19917;-47
2023/12/17 14:11:01;;;;;;;;;;;;;;;;;;5011653;28;20287;-45
2023/12/17 14:13:27;;;;;;;;;;;;;;;;;;5012391;28;19941;-46
2023/12/17 14:15:54;;;;;;;;;;;;;;;;;;5012401;28;19909;-44
2023/12/17 14:18:22;;;;;;;;;;;;;;;;;;5012524;28;19917;-46
2023/12/17 14:20:48;;;;;;;;;;;;;;;;;;5012536;28;19910;-48
2023/12/17 14:23:14;;;;;;;;;;;;;;;;;;5012286;28;20250;-49
2023/12/17 14:25:40;;;;;;;;;;;;;;;;;;5000244;28;19969;-47
2023/12/17 14:28:06;;;;;;;;;;;;;;;;;;4991041;28;19918;-47
2023/12/17 14:30:33;;;;;;;;;;;;;;;;;;4990234;28;20448;-45
2023/12/17 14:32:59;;;;;;;;;;;;;;;;;;4990957;28;20291;-46
2023/12/17 14:35:25;;;;;;;;;;;;;;;;;;4989590;28;19917;-45
2023/12/17 14:37:51;;;;;;;;;;;;;;;;;;4991884;28;19961;-44
2023/12/17 14:40:18;;;;;;;;;;;;;;;;;;5008360;28;19920;-45
2023/12/17 14:42:44;;;;;;;;;;;;;;;;;;5010442;28;19920;-45
2023/12/17 14:45:10;;;;;;;;;;;;;;;;;;5010158;28;19937;-44
2023/12/17 14:47:36;;;;;;;;;;;;;;;;;;5010655;28;19913;-46
2023/12/17 14:50:02;;;;;;;;;;;;;;;;;;5011929;28;19960;-46
2023/12/17 14:52:28;;;;;;;;;;;;;;;;;;5012022;28;19913;-47
2023/12/17 14:54:54;;;;;;;;;;;;;;;;;;5011793;28;20004;-45
2023/12/17 14:57:20;;;;;;;;;;;;;;;;;;5011604;28;19914;-46
2023/12/17 14:59:47;;;;;;;;;;;;;;;;;;5007323;28;19967;-47
2023/12/17 15:02:13;;;;;;;;;;;;;;;;;;5011463;28;19949;-46
2023/12/17 15:04:39;;;;;;;;;;;;;;;;;;4993715;28;20294;-45
2023/12/17 15:07:05;;;;;;;;;;;;;;;;;;5011717;28;19913;-45
2023/12/17 15:09:31;;;;;;;;;;;;;;;;;;5003287;28;20009;-46
2023/12/17 15:11:58;;;;;;;;;;;;;;;;;;4986761;28;19922;-44
2023/12/17 15:14:25;;;;;;;;;;;;;;;;;;4989136;28;19920;-46
2023/12/17 15:16:51;;;;;;;;;;;;;;;;;;4989362;28;19914;-45
2023/12/17 15:19:17;;;;;;;;;;;;;;;;;;4987684;28;20251;-46
2023/12/17 15:21:43;;;;;;;;;;;;;;;;;;4990586;28;19914;-46
2023/12/17 15:24:10;;;;;;;;;;;;;;;;;;4992893;28;20033;-44
2023/12/17 15:26:36;;;;;;;;;;;;;;;;;;4991941;28;20017;-46
2023/12/17 15:29:02;;;;;;;;;;;;;;;;;;4969806;28;19930;-45
2023/12/17 15:31:28;;;;;;;;;;;;;;;;;;5009433;28;19949;-46
2023/12/17 15:33:54;;;;;;;;;;;;;;;;;;5011718;28;19917;-45
2023/12/17 15:36:20;;;;;;;;;;;;;;;;;;4992664;28;19918;-45
2023/12/17 15:38:46;;;;;;;;;;;;;;;;;;4990701;28;20004;-47
2023/12/17 15:41:12;;;;;;;;;;;;;;;;;;4992673;28;20355;-46
2023/12/17 15:43:38;;;;;;;;;;;;;;;;;;4991670;28;19929;-45
2023/12/17 15:46:05;;;;;;;;;;;;;;;;;;4992874;28;20342;-44
2023/12/17 15:48:31;;;;;;;;;;;;;;;;;;4993352;28;20009;-44
2023/12/17 15:50:57;;;;;;;;;;;;;;;;;;4993657;28;19922;-45
2023/12/17 15:53:23;;;;;;;;;;;;;;;;;;5004825;28;19917;-45
2023/12/17 15:55:50;;;;;;;;;;;;;;;;;;4989616;28;20008;-46
2023/12/17 15:58:17;;;;;;;;;;;;;;;;;;4992411;28;20279;-45
2023/12/17 16:00:43;;;;;;;;;;;;;;;;;;4990306;28;19918;-44
2023/12/17 16:03:09;;;;;;;;;;;;;;;;;;4992260;28;19925;-44
2023/12/17 16:05:35;;;;;;;;;;;;;;;;;;4990275;28;20016;-45
2023/12/17 16:08:01;;;;;;;;;;;;;;;;;;4973973;28;20001;-47
2023/12/17 16:10:27;;;;;;;;;;;;;;;;;;4990952;28;20386;-45
2023/12/17 16:12:53;;;;;;;;;;;;;;;;;;5012362;28;20012;-44
2023/12/17 16:15:19;;;;;;;;;;;;;;;;;;5010940;28;19917;-44
2023/12/17 16:17:46;;;;;;;;;;;;;;;;;;5012131;28;19964;-45
2023/12/17 16:20:13;;;;;;;;;;;;;;;;;;4993275;28;20002;-44
2023/12/17 16:22:42;;;;;;;;;;;;;;;;;;4993489;28;20410;-44
2023/12/17 16:25:08;;;;;;;;;;;;;;;;;;5005935;28;19921;-47
2023/12/17 16:27:34;;;;;;;;;;;;;;;;;;5008447;28;19922;-45
2023/12/17 16:30:01;;;;;;;;;;;;;;;;;;4984177;28;19918;-45
2023/12/17 16:32:27;;;;;;;;;;;;;;;;;;5006285;28;19914;-46
2023/12/17 16:34:53;;;;;;;;;;;;;;;;;;5049300;23;19929;-45
2023/12/17 16:37:21;;;;;;;;;;;;;;;;;;5028826;28;20335;-46